メインページ
METAR-TAF:

METAR-TAF

空港 :

Rouyn-Noranda, ケベック州, カナダ

緯度: 48-12N, 経度: 078-50W, 海抜: 301m

現時点の気象観測

当レポートは1時間13分前の05:00(UTC)に作成
無風
気温 -1°C
湿度 93%
気圧 1018 hPa
視程: 24.1km
晴天

METAR: CYUY 040500Z 00000KT 15SM SKC M01/M02 A3006 RMK SLP197

時間: 02:13 (06:13 UTC)

予報

当レポートは33分前の05:40(UTC)に作成
予報は04日の 06時(UTC)から 04日の 18時(UTC)まで有効
変向風 3kt
視程: 10km
晴天
04日の 06時(UTC)から 04日の 08時(UTC)まで一時的に
視程: 3.2km
高度300ftの雲は散在している
04日の 0800時(UTC)から
変向風 3kt
視程: 9.7km
高度300ftの雲は散在している
04日の 08時(UTC)から 04日の 13時(UTC)まで一時的に
視程: 1.6km
高度300ftの千切れ雲あり
04日の 1300時(UTC)から
西/南西の風 5kt
視程: 10km
高度8000ftの雲は散在している
04日の 16時(UTC)から 04日の 18時(UTC)まで徐々に
南/南西の風 8kt

TAF: CYUY 040540Z 0406/0418 VRB03KT P6SM SKC TEMPO 0406/0408 2SM BR SCT003 FM040800 VRB03KT 6SM BR SCT003 TEMPO 0408/0413 1SM BR BKN003 FM041300 24005KT P6SM SCT080 BECMG 0416/0418 21008KT RMK NXT FCST BY 041200Z

4,000以上の空港の気象観測と天気予報(METAR報とTAF報)

利用可能な観測所は地図上に黄色い丸と赤い丸で示す。

丸の上にカーソルを重ねると観測所名を参照できる。

次にクリックすると気象観測と天気予報を参照できる。

マップの切り替え:黒色「×」印の緑ボタンをクリックして拡大、「-」印の緑ボタンをクリックして縮小、緑色の三角印をクリックして隣りの地図に切り替え


METAR-TAF: